TUI24Q GCFV-GCLA
Flight info
| Callsign | TUI24Q |
|---|---|
| Flight time | 0h 43m |
| Altitude | 27000 |
| Route | LARYS |
| Aircraft | B738/M-SDE2E3FGHIRWXY/LB1 |
Departure
| Time | 2026-04-26 13:38 |
|---|---|
| Airport | Fuerteventura Airport (GCFV) |
Arrival
| Time | 2026-04-26 14:21 |
|---|---|
| Airport | La Palma Airport (GCLA) |
| Time | Latitude | Longitude | Altitude | Speed | Heading |
|---|---|---|---|---|---|
| 2026-04-26 12:58 | 28.45547 | -13.86824 | 98 ft | 0 kts | 271° |
| 2026-04-26 13:29 | 28.45547 | -13.86819 | 98 ft | 4 kts | 271° |
| 2026-04-26 13:29 | 28.45546 | -13.86787 | 98 ft | 4 kts | 271° |
| 2026-04-26 13:30 | 28.45546 | -13.86759 | 98 ft | 2 kts | 272° |
| 2026-04-26 13:30 | 28.45550 | -13.86736 | 98 ft | 4 kts | 213° |
| 2026-04-26 13:30 | 28.45573 | -13.86728 | 98 ft | 4 kts | 182° |
| 2026-04-26 13:30 | 28.45588 | -13.86728 | 98 ft | 1 kts | 181° |
| 2026-04-26 13:32 | 28.45587 | -13.86728 | 98 ft | 1 kts | 181° |
| 2026-04-26 13:32 | 28.45565 | -13.86729 | 98 ft | 7 kts | 181° |
| 2026-04-26 13:33 | 28.45497 | -13.86730 | 100 ft | 13 kts | 181° |
| 2026-04-26 13:33 | 28.45386 | -13.86722 | 99 ft | 18 kts | 144° |
| 2026-04-26 13:33 | 28.45359 | -13.86586 | 96 ft | 18 kts | 126° |
| 2026-04-26 13:33 | 28.45243 | -13.86570 | 95 ft | 17 kts | 181° |
| 2026-04-26 13:34 | 28.45123 | -13.86573 | 94 ft | 18 kts | 181° |
| 2026-04-26 13:34 | 28.44982 | -13.86579 | 94 ft | 23 kts | 182° |
| 2026-04-26 13:34 | 28.44815 | -13.86584 | 87 ft | 26 kts | 181° |
| 2026-04-26 13:34 | 28.44687 | -13.86587 | 75 ft | 29 kts | 181° |
| 2026-04-26 13:35 | 28.44426 | -13.86597 | 64 ft | 27 kts | 182° |
| 2026-04-26 13:35 | 28.44243 | -13.86603 | 61 ft | 25 kts | 181° |
| 2026-04-26 13:35 | 28.44071 | -13.86608 | 54 ft | 24 kts | 181° |
| 2026-04-26 13:35 | 28.43905 | -13.86614 | 47 ft | 25 kts | 181° |
| 2026-04-26 13:36 | 28.43724 | -13.86619 | 42 ft | 27 kts | 181° |
| 2026-04-26 13:36 | 28.43531 | -13.86624 | 37 ft | 28 kts | 181° |
| 2026-04-26 13:36 | 28.43361 | -13.86631 | 32 ft | 22 kts | 181° |
| 2026-04-26 13:36 | 28.43306 | -13.86540 | 32 ft | 11 kts | 88° |
| 2026-04-26 13:37 | 28.43311 | -13.86455 | 33 ft | 11 kts | 73° |
| 2026-04-26 13:37 | 28.43383 | -13.86435 | 33 ft | 17 kts | 0° |
| 2026-04-26 13:37 | 28.43707 | -13.86421 | 31 ft | 88 kts | 360° |
| 2026-04-26 13:37 | 28.44585 | -13.86398 | 66 ft | 160 kts | 0° |
| 2026-04-26 13:38 | 28.45805 | -13.86371 | 695 ft | 186 kts | 4° |
| 2026-04-26 13:38 | 28.47061 | -13.86066 | 1821 ft | 185 kts | 20° |
| 2026-04-26 13:38 | 28.48135 | -13.85309 | 2973 ft | 183 kts | 34° |
| 2026-04-26 13:38 | 28.49137 | -13.84435 | 3828 ft | 181 kts | 35° |
| 2026-04-26 13:39 | 28.50344 | -13.83883 | 4122 ft | 200 kts | 358° |
| 2026-04-26 13:39 | 28.51661 | -13.84524 | 4303 ft | 222 kts | 316° |
| 2026-04-26 13:39 | 28.52345 | -13.86143 | 4542 ft | 245 kts | 284° |
| 2026-04-26 13:39 | 28.52631 | -13.88196 | 4754 ft | 271 kts | 281° |
| 2026-04-26 13:40 | 28.52937 | -13.90316 | 5381 ft | 278 kts | 282° |
| 2026-04-26 13:40 | 28.53279 | -13.92496 | 6134 ft | 282 kts | 283° |
| 2026-04-26 13:40 | 28.53652 | -13.94691 | 6917 ft | 283 kts | 282° |
| 2026-04-26 13:40 | 28.53903 | -13.96941 | 7530 ft | 289 kts | 273° |
| 2026-04-26 13:41 | 28.53932 | -13.99217 | 8207 ft | 291 kts | 270° |
| 2026-04-26 13:41 | 28.53912 | -14.01525 | 8974 ft | 292 kts | 269° |
| 2026-04-26 13:41 | 28.53889 | -14.03840 | 9699 ft | 295 kts | 269° |
| 2026-04-26 13:41 | 28.53874 | -14.06190 | 10312 ft | 300 kts | 270° |
| 2026-04-26 13:42 | 28.53866 | -14.08654 | 10507 ft | 322 kts | 270° |
| 2026-04-26 13:42 | 28.53865 | -14.10375 | 10626 ft | 335 kts | 270° |
| 2026-04-26 13:42 | 28.53869 | -14.13059 | 10828 ft | 352 kts | 270° |
| 2026-04-26 13:42 | 28.53879 | -14.15912 | 11350 ft | 358 kts | 270° |
| 2026-04-26 13:43 | 28.53892 | -14.18752 | 11982 ft | 360 kts | 270° |
| 2026-04-26 13:43 | 28.53907 | -14.21592 | 12653 ft | 362 kts | 270° |
| 2026-04-26 13:43 | 28.53923 | -14.24472 | 13304 ft | 365 kts | 270° |
| 2026-04-26 13:43 | 28.53939 | -14.27372 | 13936 ft | 368 kts | 270° |
| 2026-04-26 13:44 | 28.53962 | -14.31246 | 14725 ft | 371 kts | 270° |
| 2026-04-26 13:44 | 28.53973 | -14.33235 | 15117 ft | 374 kts | 270° |
| 2026-04-26 13:44 | 28.53989 | -14.36171 | 15757 ft | 375 kts | 270° |
| 2026-04-26 13:44 | 28.54004 | -14.39156 | 16365 ft | 378 kts | 269° |
| 2026-04-26 13:45 | 28.54019 | -14.42161 | 16996 ft | 381 kts | 269° |
| 2026-04-26 13:45 | 28.54034 | -14.45197 | 17550 ft | 385 kts | 269° |
| 2026-04-26 13:45 | 28.54047 | -14.48232 | 18134 ft | 388 kts | 269° |
| 2026-04-26 13:45 | 28.54061 | -14.51327 | 18689 ft | 391 kts | 269° |
| 2026-04-26 13:46 | 28.54074 | -14.54415 | 19275 ft | 391 kts | 269° |
| 2026-04-26 13:46 | 28.54087 | -14.57520 | 19853 ft | 392 kts | 268° |
| 2026-04-26 13:46 | 28.54098 | -14.60632 | 20339 ft | 396 kts | 269° |
| 2026-04-26 13:46 | 28.54108 | -14.63782 | 20846 ft | 399 kts | 269° |
| 2026-04-26 13:47 | 28.54119 | -14.66925 | 21321 ft | 402 kts | 269° |
| 2026-04-26 13:47 | 28.54129 | -14.70106 | 21896 ft | 403 kts | 268° |
| 2026-04-26 13:47 | 28.54138 | -14.73303 | 22360 ft | 406 kts | 269° |
| 2026-04-26 13:47 | 28.54146 | -14.76526 | 22782 ft | 410 kts | 268° |
| 2026-04-26 13:48 | 28.54153 | -14.79795 | 23273 ft | 412 kts | 269° |
| 2026-04-26 13:48 | 28.54160 | -14.83046 | 23864 ft | 409 kts | 268° |
| 2026-04-26 13:48 | 28.54166 | -14.86256 | 24561 ft | 403 kts | 268° |
| 2026-04-26 13:48 | 28.54172 | -14.89433 | 25130 ft | 401 kts | 268° |
| 2026-04-26 13:49 | 28.54177 | -14.92569 | 25579 ft | 402 kts | 268° |
| 2026-04-26 13:49 | 28.54180 | -14.95762 | 26042 ft | 403 kts | 268° |
| 2026-04-26 13:49 | 28.54182 | -14.98943 | 26576 ft | 401 kts | 268° |
| 2026-04-26 13:49 | 28.54185 | -15.02118 | 27035 ft | 401 kts | 268° |
| 2026-04-26 13:50 | 28.54186 | -15.05259 | 27009 ft | 399 kts | 268° |
| 2026-04-26 13:50 | 28.54187 | -15.08410 | 27036 ft | 398 kts | 268° |
| 2026-04-26 13:50 | 28.54186 | -15.11565 | 27040 ft | 399 kts | 268° |
| 2026-04-26 13:50 | 28.54185 | -15.14725 | 27048 ft | 399 kts | 268° |
| 2026-04-26 13:51 | 28.54183 | -15.17884 | 27049 ft | 400 kts | 268° |
| 2026-04-26 13:51 | 28.54181 | -15.21024 | 27044 ft | 400 kts | 268° |
| 2026-04-26 13:51 | 28.54178 | -15.24198 | 27042 ft | 401 kts | 268° |
| 2026-04-26 13:51 | 28.54174 | -15.27369 | 27039 ft | 401 kts | 268° |
| 2026-04-26 13:52 | 28.54170 | -15.30545 | 27038 ft | 400 kts | 268° |
| 2026-04-26 13:52 | 28.54165 | -15.33714 | 27039 ft | 400 kts | 268° |
| 2026-04-26 13:52 | 28.54159 | -15.36838 | 27041 ft | 399 kts | 268° |
| 2026-04-26 13:52 | 28.54152 | -15.40037 | 27041 ft | 399 kts | 268° |
| 2026-04-26 13:53 | 28.54145 | -15.43147 | 27042 ft | 398 kts | 268° |
| 2026-04-26 13:53 | 28.54137 | -15.46316 | 27043 ft | 398 kts | 268° |
| 2026-04-26 13:53 | 28.54128 | -15.49468 | 27047 ft | 398 kts | 268° |
| 2026-04-26 13:53 | 28.54118 | -15.52619 | 27044 ft | 397 kts | 268° |
| 2026-04-26 13:54 | 28.54108 | -15.55723 | 27049 ft | 397 kts | 268° |
| 2026-04-26 13:54 | 28.54097 | -15.58867 | 27045 ft | 397 kts | 268° |
| 2026-04-26 13:54 | 28.54085 | -15.62014 | 27045 ft | 397 kts | 268° |
| 2026-04-26 13:55 | 28.54060 | -15.68282 | 27057 ft | 398 kts | 268° |
| 2026-04-26 13:55 | 28.54050 | -15.70408 | 27052 ft | 398 kts | 268° |
| 2026-04-26 13:55 | 28.54016 | -15.77734 | 27046 ft | 398 kts | 268° |
| 2026-04-26 13:56 | 28.54001 | -15.80859 | 27036 ft | 389 kts | 268° |
| 2026-04-26 13:56 | 28.53986 | -15.83877 | 27016 ft | 376 kts | 268° |
| 2026-04-26 13:56 | 28.53971 | -15.86827 | 26781 ft | 369 kts | 268° |
| 2026-04-26 13:56 | 28.53954 | -15.89692 | 26426 ft | 366 kts | 268° |
| 2026-04-26 13:57 | 28.53936 | -15.92597 | 25918 ft | 368 kts | 268° |
| 2026-04-26 13:57 | 28.53917 | -15.95509 | 25467 ft | 368 kts | 268° |
| 2026-04-26 13:57 | 28.53898 | -15.98420 | 25099 ft | 365 kts | 268° |
| 2026-04-26 13:57 | 28.53879 | -16.01295 | 24771 ft | 362 kts | 268° |
| 2026-04-26 13:58 | 28.53860 | -16.04124 | 24400 ft | 361 kts | 268° |
| 2026-04-26 13:58 | 28.53839 | -16.07013 | 24022 ft | 360 kts | 268° |
| 2026-04-26 13:58 | 28.53819 | -16.09816 | 23626 ft | 359 kts | 268° |
| 2026-04-26 13:58 | 28.53798 | -16.12644 | 23264 ft | 356 kts | 268° |
| 2026-04-26 13:59 | 28.53776 | -16.15455 | 22884 ft | 353 kts | 268° |
| 2026-04-26 13:59 | 28.53755 | -16.18244 | 22484 ft | 351 kts | 268° |
| 2026-04-26 13:59 | 28.53732 | -16.21015 | 22078 ft | 350 kts | 268° |
| 2026-04-26 14:00 | 28.53565 | -16.29279 | 20926 ft | 345 kts | 264° |
| 2026-04-26 14:00 | 28.53340 | -16.31973 | 20519 ft | 344 kts | 262° |
| 2026-04-26 14:00 | 28.53176 | -16.33754 | 20359 ft | 340 kts | 262° |
| 2026-04-26 14:01 | 28.52841 | -16.37334 | 19800 ft | 341 kts | 262° |
| 2026-04-26 14:01 | 28.52596 | -16.40010 | 19452 ft | 339 kts | 263° |
| 2026-04-26 14:01 | 28.52359 | -16.42676 | 19087 ft | 338 kts | 263° |
| 2026-04-26 14:01 | 28.52127 | -16.45325 | 18765 ft | 336 kts | 263° |
| 2026-04-26 14:02 | 28.51902 | -16.47930 | 18458 ft | 334 kts | 263° |
| 2026-04-26 14:02 | 28.51674 | -16.50566 | 18051 ft | 334 kts | 264° |
| 2026-04-26 14:02 | 28.51448 | -16.53195 | 17641 ft | 333 kts | 264° |
| 2026-04-26 14:02 | 28.51221 | -16.55823 | 17286 ft | 332 kts | 264° |
| 2026-04-26 14:03 | 28.50997 | -16.58423 | 16960 ft | 330 kts | 264° |
| 2026-04-26 14:03 | 28.50773 | -16.61024 | 16623 ft | 328 kts | 264° |
| 2026-04-26 14:03 | 28.50549 | -16.63607 | 16277 ft | 327 kts | 264° |
| 2026-04-26 14:03 | 28.50329 | -16.66147 | 15921 ft | 326 kts | 264° |
| 2026-04-26 14:04 | 28.50106 | -16.68716 | 15572 ft | 325 kts | 264° |
| 2026-04-26 14:04 | 28.49884 | -16.71266 | 15224 ft | 324 kts | 264° |
| 2026-04-26 14:04 | 28.49661 | -16.73818 | 14882 ft | 323 kts | 264° |
| 2026-04-26 14:04 | 28.49442 | -16.76324 | 14552 ft | 322 kts | 265° |
| 2026-04-26 14:05 | 28.49220 | -16.78859 | 14210 ft | 321 kts | 264° |
| 2026-04-26 14:05 | 28.48998 | -16.81382 | 13888 ft | 320 kts | 265° |
| 2026-04-26 14:05 | 28.48777 | -16.83899 | 13533 ft | 318 kts | 265° |
| 2026-04-26 14:05 | 28.48557 | -16.86397 | 13191 ft | 317 kts | 264° |
| 2026-04-26 14:06 | 28.48340 | -16.88846 | 12846 ft | 315 kts | 265° |
| 2026-04-26 14:06 | 28.48122 | -16.91324 | 12506 ft | 314 kts | 265° |
| 2026-04-26 14:06 | 28.47903 | -16.93798 | 12152 ft | 313 kts | 265° |
| 2026-04-26 14:06 | 28.47685 | -16.96260 | 11851 ft | 311 kts | 264° |
| 2026-04-26 14:07 | 28.47466 | -16.98716 | 11522 ft | 310 kts | 264° |
| 2026-04-26 14:07 | 28.47253 | -17.01115 | 11227 ft | 308 kts | 265° |
| 2026-04-26 14:07 | 28.47037 | -17.03535 | 10879 ft | 308 kts | 265° |
| 2026-04-26 14:07 | 28.46820 | -17.05957 | 10533 ft | 307 kts | 266° |
| 2026-04-26 14:08 | 28.46602 | -17.08394 | 10144 ft | 310 kts | 266° |
| 2026-04-26 14:08 | 28.46384 | -17.10826 | 9928 ft | 305 kts | 266° |
| 2026-04-26 14:08 | 28.46171 | -17.13188 | 9787 ft | 297 kts | 265° |
| 2026-04-26 14:08 | 28.45966 | -17.15463 | 9666 ft | 288 kts | 265° |
| 2026-04-26 14:09 | 28.45762 | -17.17711 | 9440 ft | 285 kts | 266° |
| 2026-04-26 14:09 | 28.45559 | -17.19962 | 9049 ft | 288 kts | 265° |
| 2026-04-26 14:09 | 28.45356 | -17.22216 | 8744 ft | 287 kts | 267° |
| 2026-04-26 14:09 | 28.45151 | -17.24481 | 8418 ft | 287 kts | 266° |
| 2026-04-26 14:10 | 28.44947 | -17.26729 | 8177 ft | 284 kts | 266° |
| 2026-04-26 14:10 | 28.44746 | -17.28928 | 7939 ft | 281 kts | 266° |
| 2026-04-26 14:10 | 28.44545 | -17.31132 | 7707 ft | 279 kts | 266° |
| 2026-04-26 14:10 | 28.44346 | -17.33316 | 7455 ft | 276 kts | 266° |
| 2026-04-26 14:11 | 28.43949 | -17.37657 | 6986 ft | 276 kts | 266° |
| 2026-04-26 14:11 | 28.43750 | -17.39829 | 6734 ft | 276 kts | 267° |
| 2026-04-26 14:11 | 28.43552 | -17.41977 | 6496 ft | 276 kts | 268° |
| 2026-04-26 14:12 | 28.43352 | -17.44146 | 6251 ft | 274 kts | 269° |
| 2026-04-26 14:12 | 28.43195 | -17.46294 | 5994 ft | 271 kts | 271° |
| 2026-04-26 14:12 | 28.43157 | -17.48428 | 5738 ft | 268 kts | 272° |
| 2026-04-26 14:12 | 28.43145 | -17.50540 | 5486 ft | 266 kts | 273° |
| 2026-04-26 14:13 | 28.43118 | -17.54709 | 4979 ft | 263 kts | 272° |
| 2026-04-26 14:13 | 28.43097 | -17.56784 | 4732 ft | 262 kts | 274° |
| 2026-04-26 14:13 | 28.43075 | -17.58852 | 4469 ft | 261 kts | 273° |
| 2026-04-26 14:14 | 28.43051 | -17.60901 | 4219 ft | 260 kts | 273° |
| 2026-04-26 14:14 | 28.43026 | -17.62955 | 4121 ft | 262 kts | 273° |
| 2026-04-26 14:14 | 28.42998 | -17.65020 | 4078 ft | 259 kts | 272° |
| 2026-04-26 14:14 | 28.42970 | -17.67009 | 4063 ft | 248 kts | 272° |
| 2026-04-26 14:15 | 28.42943 | -17.68917 | 4052 ft | 235 kts | 273° |
| 2026-04-26 14:15 | 28.42938 | -17.69229 | 4052 ft | 234 kts | 272° |
| 2026-04-26 14:15 | 28.42923 | -17.70295 | 4060 ft | 228 kts | 272° |
| 2026-04-26 14:16 | 28.42900 | -17.72086 | 3956 ft | 224 kts | 274° |
| 2026-04-26 14:16 | 28.43230 | -17.73746 | 3520 ft | 215 kts | 309° |
| 2026-04-26 14:16 | 28.44309 | -17.74783 | 3336 ft | 195 kts | 336° |
| 2026-04-26 14:16 | 28.45578 | -17.75244 | 3075 ft | 191 kts | 356° |
| 2026-04-26 14:17 | 28.46883 | -17.75235 | 2735 ft | 186 kts | 360° |
| 2026-04-26 14:17 | 28.48162 | -17.75267 | 2578 ft | 183 kts | 359° |
| 2026-04-26 14:17 | 28.49397 | -17.75298 | 2497 ft | 176 kts | 359° |
| 2026-04-26 14:17 | 28.50617 | -17.75323 | 2413 ft | 175 kts | 359° |
| 2026-04-26 14:18 | 28.51838 | -17.75351 | 2256 ft | 174 kts | 359° |
| 2026-04-26 14:18 | 28.53053 | -17.75372 | 1971 ft | 174 kts | 359° |
| 2026-04-26 14:18 | 28.54263 | -17.75401 | 1611 ft | 171 kts | 358° |
| 2026-04-26 14:18 | 28.55387 | -17.75445 | 1453 ft | 154 kts | 357° |
| 2026-04-26 14:19 | 28.56449 | -17.75491 | 1237 ft | 147 kts | 359° |
| 2026-04-26 14:19 | 28.57452 | -17.75494 | 951 ft | 145 kts | 359° |
| 2026-04-26 14:19 | 28.58456 | -17.75488 | 792 ft | 142 kts | 359° |
| 2026-04-26 14:19 | 28.59441 | -17.75516 | 677 ft | 140 kts | 357° |
| 2026-04-26 14:20 | 28.60388 | -17.75537 | 464 ft | 134 kts | 360° |
| 2026-04-26 14:20 | 28.61303 | -17.75545 | 265 ft | 128 kts | 0° |
| 2026-04-26 14:20 | 28.62145 | -17.75551 | 117 ft | 113 kts | 359° |
| 2026-04-26 14:20 | 28.62722 | -17.75562 | 103 ft | 56 kts | 359° |
| 2026-04-26 14:21 | 28.63079 | -17.75571 | 91 ft | 50 kts | 359° |
| 2026-04-26 14:21 | 28.63343 | -17.75574 | 84 ft | 33 kts | 358° |
| 2026-04-26 14:21 | 28.63527 | -17.75571 | 74 ft | 21 kts | 17° |
| 2026-04-26 14:21 | 28.63586 | -17.75566 | 75 ft | 4 kts | 287° |
| 2026-04-26 14:22 | 28.63561 | -17.75579 | 73 ft | 8 kts | 171° |
| 2026-04-26 14:22 | 28.63448 | -17.75574 | 82 ft | 30 kts | 179° |
| 2026-04-26 14:22 | 28.63230 | -17.75571 | 87 ft | 30 kts | 179° |
| 2026-04-26 14:22 | 28.63031 | -17.75569 | 93 ft | 28 kts | 179° |
| 2026-04-26 14:23 | 28.62840 | -17.75562 | 98 ft | 27 kts | 178° |
| 2026-04-26 14:23 | 28.62666 | -17.75536 | 105 ft | 25 kts | 146° |
| 2026-04-26 14:23 | 28.62525 | -17.75446 | 110 ft | 23 kts | 179° |
| 2026-04-26 14:23 | 28.62367 | -17.75446 | 113 ft | 22 kts | 180° |
| 2026-04-26 14:24 | 28.62235 | -17.75442 | 113 ft | 9 kts | 178° |
| 2026-04-26 14:24 | 28.62200 | -17.75398 | 113 ft | 8 kts | 92° |
| 2026-04-26 14:24 | 28.62201 | -17.75363 | 113 ft | 0 kts | 89° |